createdAt,value
2022-09-23T00:02:12.822Z,0
2022-09-23T00:08:32.748Z,0
2022-09-23T00:14:55.757Z,0
2022-09-23T00:21:15.791Z,0
2022-09-23T00:27:38.750Z,0
2022-09-23T00:33:58.948Z,0
2022-09-23T00:40:21.803Z,0
2022-09-23T00:46:41.829Z,0
2022-09-23T00:53:04.883Z,0
2022-09-23T00:59:24.774Z,0
2022-09-23T01:05:47.755Z,0
2022-09-23T01:12:07.872Z,0
2022-09-23T01:18:30.759Z,0
2022-09-23T01:24:50.753Z,0
2022-09-23T01:31:13.846Z,0
2022-09-23T01:37:33.746Z,0
2022-09-23T01:43:56.773Z,0
2022-09-23T01:50:16.803Z,0
2022-09-23T01:56:39.820Z,0
2022-09-23T02:02:59.781Z,0
2022-09-23T02:09:22.799Z,0
2022-09-23T02:15:42.725Z,0
2022-09-23T02:22:05.790Z,0
2022-09-23T02:28:25.774Z,0
2022-09-23T02:34:48.752Z,0
2022-09-23T02:41:08.770Z,0
2022-09-23T02:47:31.835Z,0
2022-09-23T02:53:51.809Z,0
2022-09-23T03:00:14.746Z,0
2022-09-23T03:06:34.829Z,0
2022-09-23T03:12:57.790Z,0
2022-09-23T03:19:17.817Z,0
2022-09-23T03:42:05.773Z,0
2022-09-23T03:48:28.737Z,0
2022-09-23T03:54:48.889Z,0
2022-09-23T04:01:11.819Z,0
2022-09-23T04:07:31.837Z,0
2022-09-23T04:13:54.763Z,0
2022-09-23T04:20:14.804Z,0
2022-09-23T04:26:38.772Z,0
2022-09-23T04:32:58.788Z,0
2022-09-23T04:39:21.850Z,0
2022-09-23T04:45:41.806Z,0
2022-09-23T04:52:04.804Z,0
2022-09-23T04:58:24.908Z,0
2022-09-23T05:04:47.786Z,0
2022-09-23T05:11:07.796Z,0
2022-09-23T05:17:30.764Z,0
2022-09-23T05:23:50.743Z,0
2022-09-23T05:30:13.876Z,0
2022-09-23T05:36:37.770Z,0
2022-09-23T05:42:56.824Z,0
2022-09-23T05:49:16.812Z,5.62
2022-09-23T05:55:39.793Z,5.62
2022-09-23T06:01:59.810Z,5.62
2022-09-23T06:08:22.746Z,11.25
2022-09-23T06:14:42.790Z,11.25
2022-09-23T06:21:05.809Z,11.25
2022-09-23T06:27:25.803Z,11.25
2022-09-23T06:33:48.859Z,16.88
2022-09-23T06:40:08.780Z,16.88
2022-09-23T06:46:31.973Z,16.88
2022-09-23T06:52:51.829Z,16.88
2022-09-23T06:59:14.825Z,16.88
2022-09-23T07:05:34.789Z,22.5
2022-09-23T07:11:57.833Z,22.5
2022-09-23T07:18:18.189Z,28.12
2022-09-23T07:24:40.802Z,33.75
2022-09-23T07:31:01.134Z,39.38
2022-09-23T07:37:23.768Z,45
2022-09-23T07:43:43.732Z,50.62
2022-09-23T07:50:06.823Z,56.25
2022-09-23T07:56:26.814Z,56.25
2022-09-23T08:02:52.944Z,61.88
2022-09-23T08:09:09.820Z,61.88
2022-09-23T08:15:32.812Z,67.5
2022-09-23T08:21:52.737Z,73.12
2022-09-23T08:28:15.771Z,73.12
2022-09-23T08:43:46.688Z,73.12
2022-09-23T08:50:06.720Z,73.12
2022-09-23T08:56:29.771Z,73.12
2022-09-23T09:02:49.834Z,67.5
2022-09-23T09:09:12.740Z,67.5
2022-09-23T09:15:32.792Z,67.5
2022-09-23T09:21:55.803Z,73.12
2022-09-23T09:28:15.781Z,73.12
2022-09-23T09:34:38.763Z,73.12
2022-09-23T09:40:58.755Z,73.12
2022-09-23T09:47:21.771Z,78.75
2022-09-23T09:53:41.702Z,73.12
2022-09-23T10:00:04.866Z,84.38
2022-09-23T10:06:24.712Z,78.75
2022-09-23T10:12:47.714Z,78.75
2022-09-23T10:19:07.852Z,90
2022-09-23T10:25:30.696Z,112.5
2022-09-23T10:31:50.699Z,78.75
2022-09-23T10:38:13.709Z,90
2022-09-23T10:44:33.678Z,95.62
2022-09-23T10:50:58.989Z,101.25
2022-09-23T10:57:16.710Z,106.88
2022-09-23T11:03:39.726Z,118.12
2022-09-23T11:09:59.692Z,106.88
2022-09-23T11:16:22.761Z,101.25
2022-09-23T11:22:42.714Z,118.12
2022-09-23T11:29:05.963Z,140.62
2022-09-23T11:35:25.763Z,135
2022-09-23T11:41:48.890Z,151.88
2022-09-23T11:48:08.719Z,135
2022-09-23T11:54:31.760Z,146.25
2022-09-23T12:00:54.982Z,101.25
2022-09-23T12:07:14.753Z,90
2022-09-23T12:13:34.745Z,118.12
2022-09-23T12:19:57.808Z,106.88
2022-09-23T12:26:17.722Z,112.5
2022-09-23T12:32:40.754Z,106.88
2022-09-23T12:39:00.746Z,90
2022-09-23T12:45:23.738Z,90
2022-09-23T12:51:43.773Z,95.62
2022-09-23T12:58:06.749Z,90
2022-09-23T13:04:26.718Z,78.75
2022-09-23T13:10:49.857Z,78.75
2022-09-23T13:17:09.708Z,67.5
2022-09-23T13:23:32.757Z,61.88
2022-09-23T13:29:52.777Z,61.88
2022-09-23T13:36:15.710Z,67.5
2022-09-23T13:42:35.755Z,67.5
2022-09-23T13:48:58.728Z,67.5
2022-09-23T14:11:28.276Z,50.62
2022-09-23T14:17:47.727Z,50.62
2022-09-23T14:24:10.751Z,50.62
2022-09-23T14:30:30.754Z,50.62
2022-09-23T14:36:53.754Z,45
2022-09-23T14:43:13.777Z,45
2022-09-23T14:49:36.829Z,39.38
2022-09-23T14:55:56.871Z,45
2022-09-23T15:02:19.739Z,45
2022-09-23T15:08:39.756Z,39.38
2022-09-23T15:15:02.750Z,39.38
2022-09-23T15:21:22.723Z,33.75
2022-09-23T15:27:45.820Z,28.12
2022-09-23T15:34:05.787Z,28.12
2022-09-23T15:40:28.757Z,28.12
2022-09-23T15:46:48.803Z,28.12
2022-09-23T15:53:11.739Z,22.5
2022-09-23T15:59:31.774Z,16.88
2022-09-23T16:05:54.753Z,16.88
2022-09-23T16:12:14.810Z,11.25
2022-09-23T16:18:37.734Z,11.25
2022-09-23T16:24:57.869Z,11.25
2022-09-23T16:31:20.820Z,5.62
2022-09-23T16:37:40.766Z,5.62
2022-09-23T16:44:03.804Z,5.62
2022-09-23T16:50:23.772Z,5.62
2022-09-23T16:56:46.772Z,0
2022-09-23T17:03:06.820Z,0
2022-09-23T17:09:29.774Z,0
2022-09-23T17:15:49.863Z,0
2022-09-23T17:22:12.788Z,0
2022-09-23T17:28:32.734Z,0
2022-09-23T17:34:55.784Z,0
2022-09-23T17:41:15.772Z,0
2022-09-23T17:47:41.605Z,0
2022-09-23T17:53:58.737Z,0
2022-09-23T18:00:21.836Z,0
2022-09-23T18:06:41.770Z,0
2022-09-23T18:13:04.727Z,0
2022-09-23T18:19:24.787Z,0
2022-09-23T18:25:47.727Z,0
2022-09-23T18:32:11.070Z,0
2022-09-23T18:38:30.842Z,0
2022-09-23T18:44:50.780Z,0
2022-09-23T18:51:13.772Z,0
2022-09-23T18:57:33.780Z,0
2022-09-23T19:03:56.804Z,0
2022-09-23T19:10:16.761Z,0
2022-09-23T19:26:26.748Z,0
2022-09-23T19:32:46.728Z,0
2022-09-23T19:39:09.767Z,0
2022-09-23T19:45:29.768Z,0
2022-09-23T19:51:52.787Z,0
2022-09-23T19:58:12.724Z,0
2022-09-23T20:04:35.784Z,0
2022-09-23T20:10:55.782Z,0
2022-09-23T20:17:18.746Z,0
2022-09-23T20:23:38.782Z,0
2022-09-23T20:30:01.750Z,0
2022-09-23T20:36:21.749Z,0
2022-09-23T20:42:44.858Z,0
2022-09-23T20:49:04.722Z,0
2022-09-23T20:55:27.962Z,0
2022-09-23T21:01:48.019Z,0
2022-09-23T21:08:10.739Z,0
2022-09-23T21:14:30.760Z,0
2022-09-23T21:20:53.832Z,0
2022-09-23T21:27:13.822Z,0
2022-09-23T21:33:36.758Z,0
2022-09-23T21:39:56.787Z,0
2022-09-23T21:46:19.813Z,0
2022-09-23T21:52:39.732Z,0
2022-09-23T21:59:02.775Z,0
2022-09-23T22:22:00.782Z,0
2022-09-23T22:28:20.721Z,0
2022-09-23T22:34:52.230Z,0
2022-09-23T22:41:03.900Z,0
2022-09-23T22:47:26.743Z,0
2022-09-23T22:53:46.781Z,0
2022-09-23T23:00:09.789Z,0
2022-09-23T23:06:29.888Z,0
2022-09-23T23:12:52.788Z,0
2022-09-23T23:19:12.827Z,0
2022-09-23T23:25:35.823Z,0
2022-09-23T23:31:55.870Z,0
2022-09-23T23:38:18.784Z,0
2022-09-23T23:44:38.795Z,0
2022-09-23T23:51:01.813Z,0
2022-09-23T23:57:21.784Z,0
